CG Shrike — NPBG — position and weather

sailwx.info

Track history (hours):
 
Tides and Currents Weather Stations Pressure Air Temp Water Temp Dewpoint Dewpoint Depression Visibility Wind Speed Wind Dir Waves Ship Positions

CG Shrike

Last reported at 2017-Sep-29 12:56 UTC. Time now 2017-Oct-17 22:33 UTC.
Position N 40°35' W 074°02'.
Warning: this ship's position is 18 days out of date.

Length 26 m; draft 1.7 m.

Type: SAR. MMSI: 366999618.

Date/timePositionNaut miles runAvg speedWind from/ knotsBaromVisibWave heightAir tempDewpointWater temp
2017-Sep-29 12:56N 40°35' W 074°02'2 2.7
2017-Sep-29 12:22N 40°36' W 074°01'0 0.0
2017-Sep-29 11:58N 40°36' W 074°01'0 0.0
2017-Sep-29 11:26N 40°36' W 074°01'0 0.0
2017-Sep-29 10:58N 40°36' W 074°01'0 0.0
2017-Sep-29 10:28N 40°36' W 074°01'0 0.0
2017-Sep-29 09:52N 40°36' W 074°01'0 0.0
2017-Sep-29 09:28N 40°36' W 074°01'0 0.0
2017-Sep-29 08:55N 40°36' W 074°01'0 0.0
2017-Sep-29 08:28N 40°36' W 074°01'0 0.0
2017-Sep-29 07:58N 40°36' W 074°01'0 0.0
2017-Sep-29 07:28N 40°36' W 074°01'0 0.0
2017-Sep-29 06:55N 40°36' W 074°01'0 0.0
2017-Sep-29 06:29N 40°36' W 074°01'0 0.0
2017-Sep-29 05:55N 40°36' W 074°01'0 0.0
2017-Sep-29 05:13N 40°36' W 074°01'0 0.0
2017-Sep-29 04:59N 40°36' W 074°01'0 0.0
2017-Sep-29 04:25N 40°36' W 074°01'0 0.0
2017-Sep-29 03:58N 40°36' W 074°01'0 0.0
2017-Sep-29 03:28N 40°36' W 074°01'0 0.0
2017-Sep-29 02:58N 40°36' W 074°01'0 0.0
2017-Sep-29 02:28N 40°36' W 074°01'0 0.0
2017-Sep-29 01:58N 40°36' W 074°01'0 0.0
2017-Sep-29 01:26N 40°36' W 074°01'0 0.0
2017-Sep-29 00:52N 40°36' W 074°01'0 0.0
2017-Sep-29 00:28N 40°36' W 074°01'0 0.0
2017-Sep-28 23:58N 40°36' W 074°01'0 0.0
2017-Sep-28 23:23N 40°36' W 074°01'0 0.0
2017-Sep-28 22:59N 40°36' W 074°01'0 0.0
2017-Sep-28 22:29N 40°36' W 074°01'0 0.0
2017-Sep-28 21:53N 40°36' W 074°01'0 0.0
2017-Sep-28 21:29N 40°36' W 074°01'0 0.0
2017-Sep-28 20:58N 40°36' W 074°01'0 0.1
2017-Sep-28 20:30N 40°36' W 074°01'3 6.8
2017-Sep-28 20:00N 40°32' W 074°01'511.0
2017-Sep-28 19:30N 40°29' W 073°56'510.6
2017-Sep-28 19:00N 40°23' W 073°58'7 2.2
2017-Sep-28 15:50N 40°21' W 073°49'412.4
2017-Sep-28 15:30N 40°25' W 073°52'611.6
2017-Sep-28 14:59N 40°28' W 073°58'2 3.9
2017-Sep-28 14:27N 40°28' W 074°01'2 5.0
2017-Sep-28 13:59N 40°30' W 074°03'510.3
2017-Sep-28 13:30N 40°35' W 074°02'510.2
2017-Sep-28 13:00N 40°40' W 074°01'5 9.9
2017-Sep-28 12:30N 40°44' W 073°58'610.2
2017-Sep-28 11:57N 40°48' W 073°53'6 0.6
2017-Sep-28 03:01N 40°51' W 073°47'1 0.1
2017-Sep-27 14:57N 40°50' W 073°47'4 7.8
2017-Sep-27 14:30N 40°48' W 073°51'5 9.9
2017-Sep-27 14:00N 40°46' W 073°57'5 9.3
2017-Sep-27 13:30N 40°42' W 073°60'4 8.7
2017-Sep-27 13:00N 40°38' W 074°02'2 3.8
2017-Sep-27 12:30N 40°37' W 074°03'4 8.6
2017-Sep-27 12:00N 40°41' W 074°02'713.4
2017-Sep-27 11:30N 40°47' W 073°59'5 9.9
2017-Sep-27 11:01N 40°43' W 074°01'611.9
2017-Sep-27 10:30N 40°37' W 074°03'1 2.3
2017-Sep-27 10:00N 40°36' W 074°02'611.5
2017-Sep-27 09:29N 40°30' W 074°03'  
2017-Sep-24 12:11N 40°28' W 074°01'0 0.0
2017-Sep-24 12:01N 40°28' W 074°01'0 0.6
2017-Sep-24 11:29N 40°28' W 074°01'1 1.2
2017-Sep-24 10:59N 40°27' W 074°01'0 0.0
2017-Sep-24 10:30N 40°27' W 074°01'0 0.0
2017-Sep-24 09:55N 40°27' W 074°01'0 0.1
2017-Sep-24 09:30N 40°27' W 074°01'0 0.0
2017-Sep-24 08:57N 40°27' W 074°01'0 0.0
2017-Sep-24 08:11N 40°27' W 074°01'0 0.0
2017-Sep-24 08:00N 40°27' W 074°01'0 0.0
2017-Sep-24 07:22N 40°27' W 074°01'0 0.0
2017-Sep-24 06:48N 40°27' W 074°01'0 0.0
2017-Sep-24 06:30N 40°27' W 074°01'0 0.0
2017-Sep-24 06:00N 40°27' W 074°01'0 0.0
2017-Sep-24 05:29N 40°27' W 074°01'0 0.0
2017-Sep-24 04:59N 40°27' W 074°01'0 0.0
2017-Sep-24 04:30N 40°27' W 074°01'0 0.0
2017-Sep-24 04:00N 40°27' W 074°01'0 0.1
2017-Sep-24 03:30N 40°27' W 074°01'4 7.6
2017-Sep-24 03:00N 40°31' W 074°03'611.7
2017-Sep-24 02:30N 40°37' W 074°03'510.1
2017-Sep-24 02:00N 40°42' W 074°02'3 5.4
2017-Sep-24 01:30N 40°45' W 074°01'0 0.2
2017-Sep-24 01:00N 40°44' W 074°01'0 0.0
2017-Sep-24 00:30N 40°44' W 074°01'0 0.0
2017-Sep-24 00:00N 40°44' W 074°01'0 0.0
2017-Sep-23 23:30N 40°44' W 074°01'  
2017-Sep-21 12:49N 40°44' W 074°01'0 0.2
2017-Sep-21 12:31N 40°44' W 074°01'611.1
2017-Sep-21 12:01N 40°39' W 074°03'816.7
2017-Sep-21 11:30N 40°31' W 074°03'  
Track history (hours):
 
Tides and Currents Weather Stations Pressure Air Temp Water Temp Dewpoint Dewpoint Depression Visibility Wind Speed Wind Dir Waves Ship Positions

CG Shrike

Last reported at 2017-Sep-29 12:56 UTC. Time now 2017-Oct-17 22:33 UTC.
Position N 40°35' W 074°02'.
Warning: this ship's position is 18 days out of date.

Length 26 m; draft 1.7 m.

Type: SAR. MMSI: 366999618.

Date/timePositionNaut miles runAvg speedWind from/ knotsBaromVisibWave heightAir tempDewpointWater temp
2017-Sep-29 12:56N 40°35' W 074°02'2 2.7
2017-Sep-29 12:22N 40°36' W 074°01'0 0.0
2017-Sep-29 11:58N 40°36' W 074°01'0 0.0
2017-Sep-29 11:26N 40°36' W 074°01'0 0.0
2017-Sep-29 10:58N 40°36' W 074°01'0 0.0
2017-Sep-29 10:28N 40°36' W 074°01'0 0.0
2017-Sep-29 09:52N 40°36' W 074°01'0 0.0
2017-Sep-29 09:28N 40°36' W 074°01'0 0.0
2017-Sep-29 08:55N 40°36' W 074°01'0 0.0
2017-Sep-29 08:28N 40°36' W 074°01'0 0.0
2017-Sep-29 07:58N 40°36' W 074°01'0 0.0
2017-Sep-29 07:28N 40°36' W 074°01'0 0.0
2017-Sep-29 06:55N 40°36' W 074°01'0 0.0
2017-Sep-29 06:29N 40°36' W 074°01'0 0.0
2017-Sep-29 05:55N 40°36' W 074°01'0 0.0
2017-Sep-29 05:13N 40°36' W 074°01'0 0.0
2017-Sep-29 04:59N 40°36' W 074°01'0 0.0
2017-Sep-29 04:25N 40°36' W 074°01'0 0.0
2017-Sep-29 03:58N 40°36' W 074°01'0 0.0
2017-Sep-29 03:28N 40°36' W 074°01'0 0.0
2017-Sep-29 02:58N 40°36' W 074°01'0 0.0
2017-Sep-29 02:28N 40°36' W 074°01'0 0.0
2017-Sep-29 01:58N 40°36' W 074°01'0 0.0
2017-Sep-29 01:26N 40°36' W 074°01'0 0.0
2017-Sep-29 00:52N 40°36' W 074°01'0 0.0
2017-Sep-29 00:28N 40°36' W 074°01'0 0.0
2017-Sep-28 23:58N 40°36' W 074°01'0 0.0
2017-Sep-28 23:23N 40°36' W 074°01'0 0.0
2017-Sep-28 22:59N 40°36' W 074°01'0 0.0
2017-Sep-28 22:29N 40°36' W 074°01'0 0.0
2017-Sep-28 21:53N 40°36' W 074°01'0 0.0
2017-Sep-28 21:29N 40°36' W 074°01'0 0.0
2017-Sep-28 20:58N 40°36' W 074°01'0 0.1
2017-Sep-28 20:30N 40°36' W 074°01'3 6.8
2017-Sep-28 20:00N 40°32' W 074°01'511.0
2017-Sep-28 19:30N 40°29' W 073°56'510.6
2017-Sep-28 19:00N 40°23' W 073°58'7 2.2
2017-Sep-28 15:50N 40°21' W 073°49'412.4
2017-Sep-28 15:30N 40°25' W 073°52'611.6
2017-Sep-28 14:59N 40°28' W 073°58'2 3.9
2017-Sep-28 14:27N 40°28' W 074°01'2 5.0
2017-Sep-28 13:59N 40°30' W 074°03'510.3
2017-Sep-28 13:30N 40°35' W 074°02'510.2
2017-Sep-28 13:00N 40°40' W 074°01'5 9.9
2017-Sep-28 12:30N 40°44' W 073°58'610.2
2017-Sep-28 11:57N 40°48' W 073°53'6 0.6
2017-Sep-28 03:01N 40°51' W 073°47'1 0.1
2017-Sep-27 14:57N 40°50' W 073°47'4 7.8
2017-Sep-27 14:30N 40°48' W 073°51'5 9.9
2017-Sep-27 14:00N 40°46' W 073°57'5 9.3
2017-Sep-27 13:30N 40°42' W 073°60'4 8.7
2017-Sep-27 13:00N 40°38' W 074°02'2 3.8
2017-Sep-27 12:30N 40°37' W 074°03'4 8.6
2017-Sep-27 12:00N 40°41' W 074°02'713.4
2017-Sep-27 11:30N 40°47' W 073°59'5 9.9
2017-Sep-27 11:01N 40°43' W 074°01'611.9
2017-Sep-27 10:30N 40°37' W 074°03'1 2.3
2017-Sep-27 10:00N 40°36' W 074°02'611.5
2017-Sep-27 09:29N 40°30' W 074°03'  
2017-Sep-24 12:11N 40°28' W 074°01'0 0.0
2017-Sep-24 12:01N 40°28' W 074°01'0 0.6
2017-Sep-24 11:29N 40°28' W 074°01'1 1.2
2017-Sep-24 10:59N 40°27' W 074°01'0 0.0
2017-Sep-24 10:30N 40°27' W 074°01'0 0.0
2017-Sep-24 09:55N 40°27' W 074°01'0 0.1
2017-Sep-24 09:30N 40°27' W 074°01'0 0.0
2017-Sep-24 08:57N 40°27' W 074°01'0 0.0
2017-Sep-24 08:11N 40°27' W 074°01'0 0.0
2017-Sep-24 08:00N 40°27' W 074°01'0 0.0
2017-Sep-24 07:22N 40°27' W 074°01'0 0.0
2017-Sep-24 06:48N 40°27' W 074°01'0 0.0
2017-Sep-24 06:30N 40°27' W 074°01'0 0.0
2017-Sep-24 06:00N 40°27' W 074°01'0 0.0
2017-Sep-24 05:29N 40°27' W 074°01'0 0.0
2017-Sep-24 04:59N 40°27' W 074°01'0 0.0
2017-Sep-24 04:30N 40°27' W 074°01'0 0.0
2017-Sep-24 04:00N 40°27' W 074°01'0 0.1
2017-Sep-24 03:30N 40°27' W 074°01'4 7.6
2017-Sep-24 03:00N 40°31' W 074°03'611.7
2017-Sep-24 02:30N 40°37' W 074°03'510.1
2017-Sep-24 02:00N 40°42' W 074°02'3 5.4
2017-Sep-24 01:30N 40°45' W 074°01'0 0.2
2017-Sep-24 01:00N 40°44' W 074°01'0 0.0
2017-Sep-24 00:30N 40°44' W 074°01'0 0.0
2017-Sep-24 00:00N 40°44' W 074°01'0 0.0
2017-Sep-23 23:30N 40°44' W 074°01'  
2017-Sep-21 12:49N 40°44' W 074°01'0 0.2
2017-Sep-21 12:31N 40°44' W 074°01'611.1
2017-Sep-21 12:01N 40°39' W 074°03'816.7
2017-Sep-21 11:30N 40°31' W 074°03'  

Dump ship's entire track history